sensor_id;sensor_type;location;lat;lon;timestamp;temperature;humidity
30534;DHT22;17318;52.390;9.754;2022-12-17T00:02:05;1.80;97.00
30534;DHT22;17318;52.390;9.754;2022-12-17T00:05:06;1.80;97.00
30534;DHT22;17318;52.390;9.754;2022-12-17T00:07:58;1.70;97.00
30534;DHT22;17318;52.390;9.754;2022-12-17T00:10:43;1.70;97.10
30534;DHT22;17318;52.390;9.754;2022-12-17T00:13:27;1.60;97.00
30534;DHT22;17318;52.390;9.754;2022-12-17T00:16:11;1.60;97.10
30534;DHT22;17318;52.390;9.754;2022-12-17T00:18:56;1.60;97.20
30534;DHT22;17318;52.390;9.754;2022-12-17T00:21:40;1.50;97.30
30534;DHT22;17318;52.390;9.754;2022-12-17T00:24:24;1.40;97.30
30534;DHT22;17318;52.390;9.754;2022-12-17T00:27:08;1.50;97.50
30534;DHT22;17318;52.390;9.754;2022-12-17T00:30:00;1.40;97.30
30534;DHT22;17318;52.390;9.754;2022-12-17T00:32:44;1.40;97.40
30534;DHT22;17318;52.390;9.754;2022-12-17T00:35:29;1.40;97.60
30534;DHT22;17318;52.390;9.754;2022-12-17T00:38:15;1.40;97.60
30534;DHT22;17318;52.390;9.754;2022-12-17T00:40:59;1.30;97.70
30534;DHT22;17318;52.390;9.754;2022-12-17T00:43:43;1.30;97.70
30534;DHT22;17318;52.390;9.754;2022-12-17T00:46:27;1.20;97.60
30534;DHT22;17318;52.390;9.754;2022-12-17T00:49:12;1.30;97.60
30534;DHT22;17318;52.390;9.754;2022-12-17T00:51:56;1.20;97.40
30534;DHT22;17318;52.390;9.754;2022-12-17T00:54:40;1.20;97.50
30534;DHT22;17318;52.390;9.754;2022-12-17T00:57:25;1.20;97.50
30534;DHT22;17318;52.390;9.754;2022-12-17T01:00:10;1.20;97.50
30534;DHT22;17318;52.390;9.754;2022-12-17T01:03:04;1.20;97.50
30534;DHT22;17318;52.390;9.754;2022-12-17T01:05:48;1.20;97.40
30534;DHT22;17318;52.390;9.754;2022-12-17T01:08:33;1.10;97.30
30534;DHT22;17318;52.390;9.754;2022-12-17T01:11:17;1.10;97.50
30534;DHT22;17318;52.390;9.754;2022-12-17T01:14:01;1.10;97.70
30534;DHT22;17318;52.390;9.754;2022-12-17T01:16:45;1.00;97.70
30534;DHT22;17318;52.390;9.754;2022-12-17T01:19:30;1.00;97.70
30534;DHT22;17318;52.390;9.754;2022-12-17T01:22:14;1.10;97.40
30534;DHT22;17318;52.390;9.754;2022-12-17T01:24:59;1.20;97.20
30534;DHT22;17318;52.390;9.754;2022-12-17T01:27:47;1.20;97.40
30534;DHT22;17318;52.390;9.754;2022-12-17T01:30:31;1.10;97.50
30534;DHT22;17318;52.390;9.754;2022-12-17T01:33:15;1.10;97.70
30534;DHT22;17318;52.390;9.754;2022-12-17T01:36:00;1.20;97.60
30534;DHT22;17318;52.390;9.754;2022-12-17T01:38:44;1.00;97.30
30534;DHT22;17318;52.390;9.754;2022-12-17T01:41:28;1.00;97.30
30534;DHT22;17318;52.390;9.754;2022-12-17T01:47:43;1.00;97.40
30534;DHT22;17318;52.390;9.754;2022-12-17T01:50:31;1.00;97.30
30534;DHT22;17318;52.390;9.754;2022-12-17T01:53:24;0.90;97.20
30534;DHT22;17318;52.390;9.754;2022-12-17T01:56:10;0.90;97.50
30534;DHT22;17318;52.390;9.754;2022-12-17T01:58:55;0.90;97.40
30534;DHT22;17318;52.390;9.754;2022-12-17T02:01:40;1.00;97.50
30534;DHT22;17318;52.390;9.754;2022-12-17T02:04:24;0.90;97.40
30534;DHT22;17318;52.390;9.754;2022-12-17T02:10:25;1.20;97.50
30534;DHT22;17318;52.390;9.754;2022-12-17T02:13:22;0.80;97.40
30534;DHT22;17318;52.390;9.754;2022-12-17T02:16:33;0.70;97.40
30534;DHT22;17318;52.390;9.754;2022-12-17T02:25:55;0.70;97.30
30534;DHT22;17318;52.390;9.754;2022-12-17T02:28:46;0.70;97.50
30534;DHT22;17318;52.390;9.754;2022-12-17T02:31:37;0.80;97.50
30534;DHT22;17318;52.390;9.754;2022-12-17T02:34:22;0.70;97.70
30534;DHT22;17318;52.390;9.754;2022-12-17T02:37:06;0.70;97.50
30534;DHT22;17318;52.390;9.754;2022-12-17T02:39:51;0.80;97.50
30534;DHT22;17318;52.390;9.754;2022-12-17T02:42:35;0.80;97.40
30534;DHT22;17318;52.390;9.754;2022-12-17T02:45:20;0.80;97.30
30534;DHT22;17318;52.390;9.754;2022-12-17T02:48:06;0.70;97.30
30534;DHT22;17318;52.390;9.754;2022-12-17T02:50:51;0.70;97.50
30534;DHT22;17318;52.390;9.754;2022-12-17T02:53:42;0.90;97.50
30534;DHT22;17318;52.390;9.754;2022-12-17T02:56:27;0.60;97.30
30534;DHT22;17318;52.390;9.754;2022-12-17T02:59:11;0.60;97.40
30534;DHT22;17318;52.390;9.754;2022-12-17T03:01:55;0.70;97.40
30534;DHT22;17318;52.390;9.754;2022-12-17T03:04:40;0.60;97.30
30534;DHT22;17318;52.390;9.754;2022-12-17T03:07:24;0.60;97.40
30534;DHT22;17318;52.390;9.754;2022-12-17T03:10:08;0.60;97.30
30534;DHT22;17318;52.390;9.754;2022-12-17T03:12:53;0.60;97.60
30534;DHT22;17318;52.390;9.754;2022-12-17T03:15:38;0.70;97.80
30534;DHT22;17318;52.390;9.754;2022-12-17T03:18:22;0.60;97.80
30534;DHT22;17318;52.390;9.754;2022-12-17T03:21:06;0.70;98.00
30534;DHT22;17318;52.390;9.754;2022-12-17T03:23:50;0.80;98.00
30534;DHT22;17318;52.390;9.754;2022-12-17T03:26:34;0.90;98.00
30534;DHT22;17318;52.390;9.754;2022-12-17T03:29:19;0.90;97.80
30534;DHT22;17318;52.390;9.754;2022-12-17T03:32:03;0.90;97.70
30534;DHT22;17318;52.390;9.754;2022-12-17T03:34:47;0.80;97.70
30534;DHT22;17318;52.390;9.754;2022-12-17T03:37:32;0.80;97.40
30534;DHT22;17318;52.390;9.754;2022-12-17T03:40:16;0.80;97.30
30534;DHT22;17318;52.390;9.754;2022-12-17T03:43:11;0.80;97.40
30534;DHT22;17318;52.390;9.754;2022-12-17T03:45:56;0.80;97.40
30534;DHT22;17318;52.390;9.754;2022-12-17T03:48:41;0.70;97.50
30534;DHT22;17318;52.390;9.754;2022-12-17T03:51:25;0.80;97.50
30534;DHT22;17318;52.390;9.754;2022-12-17T03:54:09;0.80;97.50
30534;DHT22;17318;52.390;9.754;2022-12-17T03:56:54;0.80;97.40
30534;DHT22;17318;52.390;9.754;2022-12-17T03:59:38;0.80;97.40
30534;DHT22;17318;52.390;9.754;2022-12-17T04:02:22;0.70;97.40
30534;DHT22;17318;52.390;9.754;2022-12-17T04:05:07;0.80;97.50
30534;DHT22;17318;52.390;9.754;2022-12-17T04:07:51;0.70;97.50
30534;DHT22;17318;52.390;9.754;2022-12-17T04:10:35;0.70;97.60
30534;DHT22;17318;52.390;9.754;2022-12-17T04:13:20;0.70;97.70
30534;DHT22;17318;52.390;9.754;2022-12-17T04:16:04;0.80;97.80
30534;DHT22;17318;52.390;9.754;2022-12-17T04:18:49;0.80;97.70
30534;DHT22;17318;52.390;9.754;2022-12-17T04:21:33;0.90;97.70
30534;DHT22;17318;52.390;9.754;2022-12-17T04:24:17;0.90;97.70
30534;DHT22;17318;52.390;9.754;2022-12-17T04:27:02;0.90;97.70
30534;DHT22;17318;52.390;9.754;2022-12-17T04:29:46;0.80;97.60
30534;DHT22;17318;52.390;9.754;2022-12-17T04:32:30;0.90;97.70
30534;DHT22;17318;52.390;9.754;2022-12-17T04:35:15;0.90;97.90
30534;DHT22;17318;52.390;9.754;2022-12-17T04:37:59;1.00;97.70
30534;DHT22;17318;52.390;9.754;2022-12-17T04:40:43;1.00;97.60
30534;DHT22;17318;52.390;9.754;2022-12-17T04:43:28;1.40;97.60
30534;DHT22;17318;52.390;9.754;2022-12-17T04:46:12;0.90;97.30
30534;DHT22;17318;52.390;9.754;2022-12-17T04:48:56;1.00;97.50
30534;DHT22;17318;52.390;9.754;2022-12-17T04:51:41;1.00;97.50
30534;DHT22;17318;52.390;9.754;2022-12-17T04:54:25;1.00;97.60
30534;DHT22;17318;52.390;9.754;2022-12-17T04:57:09;1.00;97.50
30534;DHT22;17318;52.390;9.754;2022-12-17T04:59:54;1.00;97.50
30534;DHT22;17318;52.390;9.754;2022-12-17T05:02:38;0.90;97.40
30534;DHT22;17318;52.390;9.754;2022-12-17T05:05:22;0.90;97.40
30534;DHT22;17318;52.390;9.754;2022-12-17T05:08:07;0.90;97.40
30534;DHT22;17318;52.390;9.754;2022-12-17T05:10:51;1.00;97.40
30534;DHT22;17318;52.390;9.754;2022-12-17T05:13:35;0.90;97.30
30534;DHT22;17318;52.390;9.754;2022-12-17T05:16:20;1.00;97.30
30534;DHT22;17318;52.390;9.754;2022-12-17T05:19:04;0.90;97.20
30534;DHT22;17318;52.390;9.754;2022-12-17T05:21:48;0.90;97.20
30534;DHT22;17318;52.390;9.754;2022-12-17T05:24:32;0.90;97.10
30534;DHT22;17318;52.390;9.754;2022-12-17T05:27:17;0.90;97.00
30534;DHT22;17318;52.390;9.754;2022-12-17T05:30:01;0.80;97.00
30534;DHT22;17318;52.390;9.754;2022-12-17T05:32:45;0.90;97.10
30534;DHT22;17318;52.390;9.754;2022-12-17T05:35:30;0.80;96.90
30534;DHT22;17318;52.390;9.754;2022-12-17T05:38:14;0.80;97.00
30534;DHT22;17318;52.390;9.754;2022-12-17T05:40:59;0.80;96.90
30534;DHT22;17318;52.390;9.754;2022-12-17T05:43:43;0.70;96.90
30534;DHT22;17318;52.390;9.754;2022-12-17T05:46:28;0.70;96.90
30534;DHT22;17318;52.390;9.754;2022-12-17T05:49:12;0.60;96.90
30534;DHT22;17318;52.390;9.754;2022-12-17T05:51:57;0.80;96.80
30534;DHT22;17318;52.390;9.754;2022-12-17T05:54:41;0.90;96.60
30534;DHT22;17318;52.390;9.754;2022-12-17T05:57:26;0.80;96.50
30534;DHT22;17318;52.390;9.754;2022-12-17T06:00:10;0.80;96.70
30534;DHT22;17318;52.390;9.754;2022-12-17T06:03:00;0.80;96.60
30534;DHT22;17318;52.390;9.754;2022-12-17T06:05:55;0.80;96.40
30534;DHT22;17318;52.390;9.754;2022-12-17T06:08:39;0.90;96.30
30534;DHT22;17318;52.390;9.754;2022-12-17T06:11:24;0.80;96.30
30534;DHT22;17318;52.390;9.754;2022-12-17T06:14:08;0.80;96.20
30534;DHT22;17318;52.390;9.754;2022-12-17T06:16:52;0.80;96.20
30534;DHT22;17318;52.390;9.754;2022-12-17T06:19:37;0.90;96.00
30534;DHT22;17318;52.390;9.754;2022-12-17T06:22:22;0.80;96.00
30534;DHT22;17318;52.390;9.754;2022-12-17T06:25:06;0.80;95.90
30534;DHT22;17318;52.390;9.754;2022-12-17T06:28:00;0.80;95.90
30534;DHT22;17318;52.390;9.754;2022-12-17T06:30:52;0.80;96.00
30534;DHT22;17318;52.390;9.754;2022-12-17T06:33:37;0.80;95.80
30534;DHT22;17318;52.390;9.754;2022-12-17T06:36:22;0.80;96.20
30534;DHT22;17318;52.390;9.754;2022-12-17T06:39:06;0.80;96.10
30534;DHT22;17318;52.390;9.754;2022-12-17T06:41:50;0.70;96.30
30534;DHT22;17318;52.390;9.754;2022-12-17T06:44:35;0.70;96.40
30534;DHT22;17318;52.390;9.754;2022-12-17T06:47:19;0.60;96.40
30534;DHT22;17318;52.390;9.754;2022-12-17T06:50:11;0.50;96.30
30534;DHT22;17318;52.390;9.754;2022-12-17T06:53:03;0.50;96.20
30534;DHT22;17318;52.390;9.754;2022-12-17T06:55:48;0.50;96.10
30534;DHT22;17318;52.390;9.754;2022-12-17T06:58:32;0.50;95.80
30534;DHT22;17318;52.390;9.754;2022-12-17T07:01:16;0.40;95.60
30534;DHT22;17318;52.390;9.754;2022-12-17T07:04:01;0.30;95.70
30534;DHT22;17318;52.390;9.754;2022-12-17T07:06:46;0.30;95.90
30534;DHT22;17318;52.390;9.754;2022-12-17T07:09:30;0.30;95.80
30534;DHT22;17318;52.390;9.754;2022-12-17T07:12:14;0.20;95.90
30534;DHT22;17318;52.390;9.754;2022-12-17T07:14:59;0.20;95.90
30534;DHT22;17318;52.390;9.754;2022-12-17T07:17:56;0.20;96.00
30534;DHT22;17318;52.390;9.754;2022-12-17T07:20:41;0.20;96.00
30534;DHT22;17318;52.390;9.754;2022-12-17T07:23:25;0.10;95.90
30534;DHT22;17318;52.390;9.754;2022-12-17T07:26:10;0.00;95.90
30534;DHT22;17318;52.390;9.754;2022-12-17T07:28:54;0.00;95.90
30534;DHT22;17318;52.390;9.754;2022-12-17T07:31:38;0.30;96.20
30534;DHT22;17318;52.390;9.754;2022-12-17T07:34:23;-0.10;96.00
30534;DHT22;17318;52.390;9.754;2022-12-17T07:37:07;-0.10;96.10
30534;DHT22;17318;52.390;9.754;2022-12-17T07:39:51;-0.20;95.90
30534;DHT22;17318;52.390;9.754;2022-12-17T07:42:38;-0.10;96.00
30534;DHT22;17318;52.390;9.754;2022-12-17T07:45:22;-0.20;95.90
30534;DHT22;17318;52.390;9.754;2022-12-17T07:48:06;-0.30;95.80
30534;DHT22;17318;52.390;9.754;2022-12-17T07:50:51;-0.30;96.00
30534;DHT22;17318;52.390;9.754;2022-12-17T07:53:35;-0.40;95.90
30534;DHT22;17318;52.390;9.754;2022-12-17T07:56:19;-0.40;96.00
30534;DHT22;17318;52.390;9.754;2022-12-17T07:59:04;-0.40;95.90
30534;DHT22;17318;52.390;9.754;2022-12-17T08:01:48;-0.40;95.90
30534;DHT22;17318;52.390;9.754;2022-12-17T08:04:32;-0.50;95.90
30534;DHT22;17318;52.390;9.754;2022-12-17T08:07:16;-0.50;96.00
30534;DHT22;17318;52.390;9.754;2022-12-17T08:10:01;-0.50;96.00
30534;DHT22;17318;52.390;9.754;2022-12-17T08:12:55;-0.60;96.00
30534;DHT22;17318;52.390;9.754;2022-12-17T08:15:40;-0.50;95.90
30534;DHT22;17318;52.390;9.754;2022-12-17T08:18:24;-0.40;95.70
30534;DHT22;17318;52.390;9.754;2022-12-17T08:21:08;-0.40;95.60
30534;DHT22;17318;52.390;9.754;2022-12-17T08:23:52;-0.40;95.60
30534;DHT22;17318;52.390;9.754;2022-12-17T08:26:37;-0.50;95.50
30534;DHT22;17318;52.390;9.754;2022-12-17T08:29:21;-0.50;95.50
30534;DHT22;17318;52.390;9.754;2022-12-17T08:32:05;-0.50;95.90
30534;DHT22;17318;52.390;9.754;2022-12-17T08:34:50;-0.50;95.50
30534;DHT22;17318;52.390;9.754;2022-12-17T08:37:34;-0.50;95.50
30534;DHT22;17318;52.390;9.754;2022-12-17T08:40:18;-0.50;95.30
30534;DHT22;17318;52.390;9.754;2022-12-17T08:43:03;-0.40;95.30
30534;DHT22;17318;52.390;9.754;2022-12-17T08:45:47;-0.40;95.20
30534;DHT22;17318;52.390;9.754;2022-12-17T08:48:32;-0.50;95.10
30534;DHT22;17318;52.390;9.754;2022-12-17T08:51:17;-0.40;95.20
30534;DHT22;17318;52.390;9.754;2022-12-17T08:54:01;-0.40;95.30
30534;DHT22;17318;52.390;9.754;2022-12-17T08:56:45;-0.30;95.20
30534;DHT22;17318;52.390;9.754;2022-12-17T08:59:30;-0.40;95.00
30534;DHT22;17318;52.390;9.754;2022-12-17T09:02:14;-0.30;95.10
30534;DHT22;17318;52.390;9.754;2022-12-17T09:04:59;-0.40;95.10
30534;DHT22;17318;52.390;9.754;2022-12-17T09:07:43;-0.30;95.10
30534;DHT22;17318;52.390;9.754;2022-12-17T09:10:27;0.10;95.30
30534;DHT22;17318;52.390;9.754;2022-12-17T09:13:11;-0.30;94.90
30534;DHT22;17318;52.390;9.754;2022-12-17T09:15:56;-0.20;95.10
30534;DHT22;17318;52.390;9.754;2022-12-17T09:18:41;-0.30;94.90
30534;DHT22;17318;52.390;9.754;2022-12-17T09:21:29;-0.20;94.80
30534;DHT22;17318;52.390;9.754;2022-12-17T09:24:13;-0.20;95.00
30534;DHT22;17318;52.390;9.754;2022-12-17T09:26:58;-0.30;94.90
30534;DHT22;17318;52.390;9.754;2022-12-17T09:29:42;-0.10;95.10
30534;DHT22;17318;52.390;9.754;2022-12-17T09:32:26;-0.10;94.80
30534;DHT22;17318;52.390;9.754;2022-12-17T09:35:11;-0.10;94.80
30534;DHT22;17318;52.390;9.754;2022-12-17T09:37:55;-0.20;94.80
30534;DHT22;17318;52.390;9.754;2022-12-17T09:40:44;-0.20;94.80
30534;DHT22;17318;52.390;9.754;2022-12-17T09:46:44;-0.20;94.80
30534;DHT22;17318;52.390;9.754;2022-12-17T09:49:31;-0.20;94.80
30534;DHT22;17318;52.390;9.754;2022-12-17T09:52:44;-0.10;95.00
30534;DHT22;17318;52.390;9.754;2022-12-17T09:55:38;-0.10;94.90
30534;DHT22;17318;52.390;9.754;2022-12-17T09:58:26;0.00;94.90
30534;DHT22;17318;52.390;9.754;2022-12-17T10:01:16;0.00;94.80
30534;DHT22;17318;52.390;9.754;2022-12-17T10:04:03;0.00;95.10
30534;DHT22;17318;52.390;9.754;2022-12-17T10:06:49;0.10;94.90
30534;DHT22;17318;52.390;9.754;2022-12-17T10:09:34;0.20;94.70
30534;DHT22;17318;52.390;9.754;2022-12-17T10:12:19;0.40;94.90
30534;DHT22;17318;52.390;9.754;2022-12-17T10:15:05;0.40;94.70
30534;DHT22;17318;52.390;9.754;2022-12-17T10:17:50;0.50;94.70
30534;DHT22;17318;52.390;9.754;2022-12-17T10:20:47;0.60;94.90
30534;DHT22;17318;52.390;9.754;2022-12-17T10:23:33;0.80;94.90
30534;DHT22;17318;52.390;9.754;2022-12-17T10:26:26;0.80;94.70
30534;DHT22;17318;52.390;9.754;2022-12-17T10:29:25;1.00;94.80
30534;DHT22;17318;52.390;9.754;2022-12-17T10:35:05;1.20;94.30
30534;DHT22;17318;52.390;9.754;2022-12-17T10:37:50;1.40;94.40
30534;DHT22;17318;52.390;9.754;2022-12-17T10:40:34;1.60;94.50
30534;DHT22;17318;52.390;9.754;2022-12-17T10:43:27;1.60;94.40
30534;DHT22;17318;52.390;9.754;2022-12-17T10:46:31;1.80;94.50
30534;DHT22;17318;52.390;9.754;2022-12-17T10:49:21;1.90;94.10
30534;DHT22;17318;52.390;9.754;2022-12-17T10:52:26;2.00;93.80
30534;DHT22;17318;52.390;9.754;2022-12-17T10:55:21;2.00;94.00
30534;DHT22;17318;52.390;9.754;2022-12-17T10:58:18;1.90;93.60
30534;DHT22;17318;52.390;9.754;2022-12-17T11:01:03;1.90;93.70
30534;DHT22;17318;52.390;9.754;2022-12-17T11:03:53;2.00;93.90
30534;DHT22;17318;52.390;9.754;2022-12-17T11:06:40;2.00;93.90
30534;DHT22;17318;52.390;9.754;2022-12-17T11:12:22;2.00;93.90
30534;DHT22;17318;52.390;9.754;2022-12-17T11:15:41;2.20;94.10
30534;DHT22;17318;52.390;9.754;2022-12-17T11:21:38;2.20;93.80
30534;DHT22;17318;52.390;9.754;2022-12-17T11:24:26;2.40;93.80
30534;DHT22;17318;52.390;9.754;2022-12-17T11:27:17;2.50;93.90
30534;DHT22;17318;52.390;9.754;2022-12-17T11:30:13;2.60;93.70
30534;DHT22;17318;52.390;9.754;2022-12-17T11:33:00;2.80;93.70
30534;DHT22;17318;52.390;9.754;2022-12-17T11:36:01;3.40;93.70
30534;DHT22;17318;52.390;9.754;2022-12-17T11:44:55;5.60;92.20
30534;DHT22;17318;52.390;9.754;2022-12-17T11:47:58;5.90;90.80
30534;DHT22;17318;52.390;9.754;2022-12-17T12:00:17;6.10;88.80
30534;DHT22;17318;52.390;9.754;2022-12-17T12:06:12;6.10;88.30
30534;DHT22;17318;52.390;9.754;2022-12-17T12:09:16;6.10;88.20
30534;DHT22;17318;52.390;9.754;2022-12-17T12:15:26;6.10;88.30
30534;DHT22;17318;52.390;9.754;2022-12-17T12:18:45;6.00;88.80
30534;DHT22;17318;52.390;9.754;2022-12-17T12:22:07;6.00;88.40
30534;DHT22;17318;52.390;9.754;2022-12-17T12:25:21;6.10;88.30
30534;DHT22;17318;52.390;9.754;2022-12-17T12:28:17;5.80;88.20
30534;DHT22;17318;52.390;9.754;2022-12-17T12:34:10;5.80;88.70
30534;DHT22;17318;52.390;9.754;2022-12-17T12:36:59;5.80;87.90
30534;DHT22;17318;52.390;9.754;2022-12-17T12:39:56;5.90;88.30
30534;DHT22;17318;52.390;9.754;2022-12-17T12:42:48;5.80;87.90
30534;DHT22;17318;52.390;9.754;2022-12-17T12:45:39;5.70;88.10
30534;DHT22;17318;52.390;9.754;2022-12-17T12:48:54;5.70;88.50
30534;DHT22;17318;52.390;9.754;2022-12-17T12:51:41;5.50;87.30
30534;DHT22;17318;52.390;9.754;2022-12-17T12:54:31;5.70;88.50
30534;DHT22;17318;52.390;9.754;2022-12-17T12:57:28;5.60;87.60
30534;DHT22;17318;52.390;9.754;2022-12-17T13:06:02;5.60;87.70
30534;DHT22;17318;52.390;9.754;2022-12-17T13:08:28;5.70;88.10
30534;DHT22;17318;52.390;9.754;2022-12-17T13:10:54;5.50;88.20
30534;DHT22;17318;52.390;9.754;2022-12-17T13:13:28;5.40;88.10
30534;DHT22;17318;52.390;9.754;2022-12-17T13:16:00;5.60;89.30
30534;DHT22;17318;52.390;9.754;2022-12-17T13:18:34;5.50;88.00
30534;DHT22;17318;52.390;9.754;2022-12-17T13:21:03;5.40;89.10
30534;DHT22;17318;52.390;9.754;2022-12-17T13:23:33;5.30;89.30
30534;DHT22;17318;52.390;9.754;2022-12-17T13:26:28;5.20;89.30
30534;DHT22;17318;52.390;9.754;2022-12-17T13:29:00;5.20;88.50
30534;DHT22;17318;52.390;9.754;2022-12-17T13:34:20;5.10;89.10
30534;DHT22;17318;52.390;9.754;2022-12-17T13:37:00;5.10;89.20
30534;DHT22;17318;52.390;9.754;2022-12-17T13:42:01;4.90;89.20
30534;DHT22;17318;52.390;9.754;2022-12-17T13:44:37;4.90;89.80
30534;DHT22;17318;52.390;9.754;2022-12-17T13:47:16;4.80;89.70
30534;DHT22;17318;52.390;9.754;2022-12-17T13:49:50;4.70;89.90
30534;DHT22;17318;52.390;9.754;2022-12-17T13:52:19;4.70;90.20
30534;DHT22;17318;52.390;9.754;2022-12-17T13:54:45;4.70;90.10
30534;DHT22;17318;52.390;9.754;2022-12-17T13:57:19;4.60;90.10
30534;DHT22;17318;52.390;9.754;2022-12-17T13:59:59;4.60;90.10
30534;DHT22;17318;52.390;9.754;2022-12-17T14:02:35;4.50;90.30
30534;DHT22;17318;52.390;9.754;2022-12-17T14:05:17;4.50;90.30
30534;DHT22;17318;52.390;9.754;2022-12-17T14:07:45;4.50;90.20
30534;DHT22;17318;52.390;9.754;2022-12-17T14:10:16;4.40;90.10
30534;DHT22;17318;52.390;9.754;2022-12-17T14:12:42;4.40;90.20
30534;DHT22;17318;52.390;9.754;2022-12-17T14:15:23;4.40;90.30
30534;DHT22;17318;52.390;9.754;2022-12-17T14:17:50;4.40;90.40
30534;DHT22;17318;52.390;9.754;2022-12-17T14:20:20;4.30;90.50
30534;DHT22;17318;52.390;9.754;2022-12-17T14:22:53;4.30;90.60
30534;DHT22;17318;52.390;9.754;2022-12-17T14:25:34;4.40;90.60
30534;DHT22;17318;52.390;9.754;2022-12-17T14:30:41;4.20;90.60
30534;DHT22;17318;52.390;9.754;2022-12-17T14:33:42;4.20;90.60
30534;DHT22;17318;52.390;9.754;2022-12-17T14:36:17;4.00;90.70
30534;DHT22;17318;52.390;9.754;2022-12-17T14:38:58;4.00;90.80
30534;DHT22;17318;52.390;9.754;2022-12-17T14:41:25;4.10;90.90
30534;DHT22;17318;52.390;9.754;2022-12-17T14:44:19;3.90;91.00
30534;DHT22;17318;52.390;9.754;2022-12-17T14:46:46;3.70;91.40
30534;DHT22;17318;52.390;9.754;2022-12-17T14:49:19;3.70;91.20
30534;DHT22;17318;52.390;9.754;2022-12-17T14:51:46;3.70;91.20
30534;DHT22;17318;52.390;9.754;2022-12-17T14:56:51;3.60;91.30
30534;DHT22;17318;52.390;9.754;2022-12-17T15:01:51;3.50;91.50
30534;DHT22;17318;52.390;9.754;2022-12-17T15:04:18;3.40;91.40
30534;DHT22;17318;52.390;9.754;2022-12-17T15:06:43;3.40;91.50
30534;DHT22;17318;52.390;9.754;2022-12-17T15:09:11;3.30;91.60
30534;DHT22;17318;52.390;9.754;2022-12-17T15:11:37;3.50;91.80
30534;DHT22;17318;52.390;9.754;2022-12-17T15:14:03;3.30;91.70
30534;DHT22;17318;52.390;9.754;2022-12-17T15:16:29;3.10;91.80
30534;DHT22;17318;52.390;9.754;2022-12-17T15:18:54;3.10;91.80
30534;DHT22;17318;52.390;9.754;2022-12-17T15:21:20;3.00;91.90
30534;DHT22;17318;52.390;9.754;2022-12-17T15:23:46;3.40;92.10
30534;DHT22;17318;52.390;9.754;2022-12-17T15:26:13;3.00;92.20
30534;DHT22;17318;52.390;9.754;2022-12-17T15:28:40;3.00;92.00
30534;DHT22;17318;52.390;9.754;2022-12-17T15:31:08;3.00;92.10
30534;DHT22;17318;52.390;9.754;2022-12-17T15:33:34;2.90;92.10
30534;DHT22;17318;52.390;9.754;2022-12-17T15:35:59;2.90;92.20
30534;DHT22;17318;52.390;9.754;2022-12-17T15:38:25;2.80;92.20
30534;DHT22;17318;52.390;9.754;2022-12-17T15:40:51;2.50;92.20
30534;DHT22;17318;52.390;9.754;2022-12-17T15:43:17;2.70;92.30
30534;DHT22;17318;52.390;9.754;2022-12-17T15:45:45;2.70;92.30
30534;DHT22;17318;52.390;9.754;2022-12-17T15:48:12;2.70;92.30
30534;DHT22;17318;52.390;9.754;2022-12-17T15:50:39;3.00;92.40
30534;DHT22;17318;52.390;9.754;2022-12-17T15:53:04;2.60;92.30
30534;DHT22;17318;52.390;9.754;2022-12-17T15:55:31;2.50;92.30
30534;DHT22;17318;52.390;9.754;2022-12-17T15:57:56;2.40;92.40
30534;DHT22;17318;52.390;9.754;2022-12-17T16:00:23;2.30;92.80
30534;DHT22;17318;52.390;9.754;2022-12-17T16:02:51;2.40;92.60
30534;DHT22;17318;52.390;9.754;2022-12-17T16:05:17;2.40;92.50
30534;DHT22;17318;52.390;9.754;2022-12-17T16:07:43;2.30;92.50
30534;DHT22;17318;52.390;9.754;2022-12-17T16:10:11;2.30;92.50
30534;DHT22;17318;52.390;9.754;2022-12-17T16:12:37;2.20;92.40
30534;DHT22;17318;52.390;9.754;2022-12-17T16:15:03;2.30;92.40
30534;DHT22;17318;52.390;9.754;2022-12-17T16:17:29;2.30;92.40
30534;DHT22;17318;52.390;9.754;2022-12-17T16:19:55;2.20;92.30
30534;DHT22;17318;52.390;9.754;2022-12-17T16:22:21;2.20;92.30
30534;DHT22;17318;52.390;9.754;2022-12-17T16:24:47;2.20;92.30
30534;DHT22;17318;52.390;9.754;2022-12-17T16:27:12;2.20;92.30
30534;DHT22;17318;52.390;9.754;2022-12-17T16:29:38;2.10;92.30
30534;DHT22;17318;52.390;9.754;2022-12-17T16:32:04;2.10;92.40
30534;DHT22;17318;52.390;9.754;2022-12-17T16:34:30;2.10;92.40
30534;DHT22;17318;52.390;9.754;2022-12-17T16:36:56;2.00;92.40
30534;DHT22;17318;52.390;9.754;2022-12-17T16:39:22;1.90;92.40
30534;DHT22;17318;52.390;9.754;2022-12-17T16:41:48;1.90;92.70
30534;DHT22;17318;52.390;9.754;2022-12-17T16:44:13;1.90;92.40
30534;DHT22;17318;52.390;9.754;2022-12-17T16:46:41;1.90;92.40
30534;DHT22;17318;52.390;9.754;2022-12-17T16:51:33;1.80;92.50
30534;DHT22;17318;52.390;9.754;2022-12-17T16:54:04;1.80;92.50
30534;DHT22;17318;52.390;9.754;2022-12-17T16:56:29;1.80;92.50
30534;DHT22;17318;52.390;9.754;2022-12-17T16:58:55;1.80;92.40
30534;DHT22;17318;52.390;9.754;2022-12-17T17:01:23;1.70;92.40
30534;DHT22;17318;52.390;9.754;2022-12-17T17:03:49;1.80;92.50
30534;DHT22;17318;52.390;9.754;2022-12-17T17:06:16;1.60;92.50
30534;DHT22;17318;52.390;9.754;2022-12-17T17:08:42;1.70;92.80
30534;DHT22;17318;52.390;9.754;2022-12-17T17:11:14;1.70;92.50
30534;DHT22;17318;52.390;9.754;2022-12-17T17:13:40;1.60;92.50
30534;DHT22;17318;52.390;9.754;2022-12-17T17:16:07;1.60;92.60
30534;DHT22;17318;52.390;9.754;2022-12-17T17:18:34;1.60;92.60
30534;DHT22;17318;52.390;9.754;2022-12-17T17:23:43;1.60;92.70
30534;DHT22;17318;52.390;9.754;2022-12-17T17:26:09;1.50;92.60
30534;DHT22;17318;52.390;9.754;2022-12-17T17:28:35;1.50;92.70
30534;DHT22;17318;52.390;9.754;2022-12-17T17:31:03;1.50;92.60
30534;DHT22;17318;52.390;9.754;2022-12-17T17:33:30;1.50;92.70
30534;DHT22;17318;52.390;9.754;2022-12-17T17:36:17;1.40;92.60
30534;DHT22;17318;52.390;9.754;2022-12-17T17:38:43;1.40;92.70
30534;DHT22;17318;52.390;9.754;2022-12-17T17:41:11;1.40;92.60
30534;DHT22;17318;52.390;9.754;2022-12-17T17:43:38;1.40;92.60
30534;DHT22;17318;52.390;9.754;2022-12-17T17:46:06;1.30;92.60
30534;DHT22;17318;52.390;9.754;2022-12-17T17:48:32;1.40;92.70
30534;DHT22;17318;52.390;9.754;2022-12-17T17:51:07;1.30;92.70
30534;DHT22;17318;52.390;9.754;2022-12-17T17:53:34;1.50;92.70
30534;DHT22;17318;52.390;9.754;2022-12-17T17:56:08;1.30;92.60
30534;DHT22;17318;52.390;9.754;2022-12-17T17:58:44;1.30;92.70
30534;DHT22;17318;52.390;9.754;2022-12-17T18:01:13;1.20;92.60
30534;DHT22;17318;52.390;9.754;2022-12-17T18:03:39;1.20;92.60
30534;DHT22;17318;52.390;9.754;2022-12-17T18:06:06;1.30;92.80
30534;DHT22;17318;52.390;9.754;2022-12-17T18:08:36;1.20;92.70
30534;DHT22;17318;52.390;9.754;2022-12-17T18:11:04;1.10;92.60
30534;DHT22;17318;52.390;9.754;2022-12-17T18:13:30;1.10;92.60
30534;DHT22;17318;52.390;9.754;2022-12-17T18:16:14;1.10;92.60
30534;DHT22;17318;52.390;9.754;2022-12-17T18:18:40;1.10;92.60
30534;DHT22;17318;52.390;9.754;2022-12-17T18:21:11;1.00;92.60
30534;DHT22;17318;52.390;9.754;2022-12-17T18:23:37;1.00;92.50
30534;DHT22;17318;52.390;9.754;2022-12-17T18:26:19;1.00;92.50
30534;DHT22;17318;52.390;9.754;2022-12-17T18:28:47;0.90;92.50
30534;DHT22;17318;52.390;9.754;2022-12-17T18:31:22;0.90;92.60